sensor_id;sensor_type;location;lat;lon;timestamp;temperature;humidity
63407;SHT31;49543;45.892;10.838;2023-03-14T12:30:55;19.84;66.06
63407;SHT31;49543;45.892;10.838;2023-03-14T12:33:21;18.55;68.48
63407;SHT31;49543;45.892;10.838;2023-03-14T12:36:01;17.57;71.11
63407;SHT31;49543;45.892;10.838;2023-03-14T12:38:29;17.18;72.74
63407;SHT31;49543;45.892;10.838;2023-03-14T12:41:05;16.88;73.18
63407;SHT31;49543;45.892;10.838;2023-03-14T12:43:33;16.63;74.13
63407;SHT31;49543;45.892;10.838;2023-03-14T17:57:17;14.30;85.41
63407;SHT31;49543;45.892;10.838;2023-03-14T17:59:42;14.27;85.47
63407;SHT31;49543;45.892;10.838;2023-03-14T18:02:08;14.26;85.35
63407;SHT31;49543;45.892;10.838;2023-03-14T18:48:31;14.05;87.64
63407;SHT31;49543;45.892;10.838;2023-03-14T18:50:57;14.06;87.77
63407;SHT31;49543;45.892;10.838;2023-03-14T18:53:23;14.02;87.90
63407;SHT31;49543;45.892;10.838;2023-03-14T18:55:56;14.08;87.85
63407;SHT31;49543;45.892;10.838;2023-03-14T18:58:21;14.03;87.76
63407;SHT31;49543;45.892;10.838;2023-03-14T19:00:54;14.09;87.72
63407;SHT31;49543;45.892;10.838;2023-03-14T19:03:19;14.08;87.66
63407;SHT31;49543;45.892;10.838;2023-03-14T19:05:45;14.03;87.93
63407;SHT31;49543;45.892;10.838;2023-03-14T19:08:10;14.01;88.00
63407;SHT31;49543;45.892;10.838;2023-03-14T19:10:38;13.98;87.95
63407;SHT31;49543;45.892;10.838;2023-03-14T19:13:04;13.95;87.45
63407;SHT31;49543;45.892;10.838;2023-03-14T19:15:29;13.95;87.46
63407;SHT31;49543;45.892;10.838;2023-03-14T19:17:54;13.95;87.55
63407;SHT31;49543;45.892;10.838;2023-03-14T19:20:20;13.99;87.65
63407;SHT31;49543;45.892;10.838;2023-03-14T19:22:45;14.02;87.27
63407;SHT31;49543;45.892;10.838;2023-03-14T19:25:10;14.01;86.96
63407;SHT31;49543;45.892;10.838;2023-03-14T19:27:36;13.96;87.24
63407;SHT31;49543;45.892;10.838;2023-03-14T19:30:03;13.96;87.63
63407;SHT31;49543;45.892;10.838;2023-03-14T19:32:28;13.95;87.67
63407;SHT31;49543;45.892;10.838;2023-03-14T19:34:53;13.93;87.32
63407;SHT31;49543;45.892;10.838;2023-03-14T19:37:19;13.95;87.41
63407;SHT31;49543;45.892;10.838;2023-03-14T19:39:44;13.90;87.52
63407;SHT31;49543;45.892;10.838;2023-03-14T19:42:11;13.89;86.77
63407;SHT31;49543;45.892;10.838;2023-03-14T19:44:36;13.87;86.95
63407;SHT31;49543;45.892;10.838;2023-03-14T19:47:01;13.86;87.10
63407;SHT31;49543;45.892;10.838;2023-03-14T19:49:29;13.82;86.51
63407;SHT31;49543;45.892;10.838;2023-03-14T19:51:56;13.83;86.71
63407;SHT31;49543;45.892;10.838;2023-03-14T19:54:21;13.78;86.95
63407;SHT31;49543;45.892;10.838;2023-03-14T19:56:48;13.79;87.08
63407;SHT31;49543;45.892;10.838;2023-03-14T19:59:13;13.78;87.36
63407;SHT31;49543;45.892;10.838;2023-03-14T20:01:38;13.83;87.52
63407;SHT31;49543;45.892;10.838;2023-03-14T20:04:05;13.83;87.25
63407;SHT31;49543;45.892;10.838;2023-03-14T20:06:31;13.75;86.38
63407;SHT31;49543;45.892;10.838;2023-03-14T20:08:57;13.68;86.67
63407;SHT31;49543;45.892;10.838;2023-03-14T20:11:22;13.62;86.94
63407;SHT31;49543;45.892;10.838;2023-03-14T20:13:47;13.62;87.02
63407;SHT31;49543;45.892;10.838;2023-03-14T20:16:13;13.61;87.10
63407;SHT31;49543;45.892;10.838;2023-03-14T20:18:38;13.57;87.12
63407;SHT31;49543;45.892;10.838;2023-03-14T20:21:04;13.58;87.27
63407;SHT31;49543;45.892;10.838;2023-03-14T20:23:29;13.58;87.13
63407;SHT31;49543;45.892;10.838;2023-03-14T20:25:56;13.54;86.79
63407;SHT31;49543;45.892;10.838;2023-03-14T20:28:21;13.47;82.81
63407;SHT31;49543;45.892;10.838;2023-03-14T20:30:47;13.46;83.00
63407;SHT31;49543;45.892;10.838;2023-03-14T20:33:13;13.46;83.41
63407;SHT31;49543;45.892;10.838;2023-03-14T20:35:40;13.50;83.75
63407;SHT31;49543;45.892;10.838;2023-03-14T20:38:06;13.48;84.14
63407;SHT31;49543;45.892;10.838;2023-03-14T20:40:33;13.47;83.25
63407;SHT31;49543;45.892;10.838;2023-03-14T20:42:58;13.34;78.05
63407;SHT31;49543;45.892;10.838;2023-03-14T20:45:24;13.38;77.38
63407;SHT31;49543;45.892;10.838;2023-03-14T20:47:49;13.41;77.84
63407;SHT31;49543;45.892;10.838;2023-03-14T20:50:14;13.41;78.72
63407;SHT31;49543;45.892;10.838;2023-03-14T20:52:40;13.41;78.45
63407;SHT31;49543;45.892;10.838;2023-03-14T20:55:06;13.44;79.79
63407;SHT31;49543;45.892;10.838;2023-03-14T20:57:31;13.38;80.95
63407;SHT31;49543;45.892;10.838;2023-03-14T20:59:57;13.33;81.93
63407;SHT31;49543;45.892;10.838;2023-03-14T21:02:22;13.33;83.05
63407;SHT31;49543;45.892;10.838;2023-03-14T21:04:48;13.33;83.90
63407;SHT31;49543;45.892;10.838;2023-03-14T21:07:13;13.31;84.26
63407;SHT31;49543;45.892;10.838;2023-03-14T21:09:38;13.30;84.09
63407;SHT31;49543;45.892;10.838;2023-03-14T21:12:04;13.24;78.86
63407;SHT31;49543;45.892;10.838;2023-03-14T21:14:29;13.23;77.27
63407;SHT31;49543;45.892;10.838;2023-03-14T21:16:55;13.28;78.10
63407;SHT31;49543;45.892;10.838;2023-03-14T21:19:22;13.31;79.00
63407;SHT31;49543;45.892;10.838;2023-03-14T21:22:01;13.31;79.41
63407;SHT31;49543;45.892;10.838;2023-03-14T21:24:31;13.24;80.31
63407;SHT31;49543;45.892;10.838;2023-03-14T21:26:59;13.17;81.02
63407;SHT31;49543;45.892;10.838;2023-03-14T21:29:25;13.14;81.55
63407;SHT31;49543;45.892;10.838;2023-03-14T21:31:50;13.11;81.27
63407;SHT31;49543;45.892;10.838;2023-03-14T21:34:16;13.07;79.27
63407;SHT31;49543;45.892;10.838;2023-03-14T21:36:41;13.04;80.07
63407;SHT31;49543;45.892;10.838;2023-03-14T21:39:07;12.97;80.83
63407;SHT31;49543;45.892;10.838;2023-03-14T21:41:32;12.95;81.33
63407;SHT31;49543;45.892;10.838;2023-03-14T21:43:58;12.92;78.88
63407;SHT31;49543;45.892;10.838;2023-03-14T21:46:23;12.88;75.79
63407;SHT31;49543;45.892;10.838;2023-03-14T21:48:51;12.93;74.80
63407;SHT31;49543;45.892;10.838;2023-03-14T21:51:18;13.09;69.70
63407;SHT31;49543;45.892;10.838;2023-03-14T21:53:43;13.30;68.01
63407;SHT31;49543;45.892;10.838;2023-03-14T21:56:10;13.28;70.13
63407;SHT31;49543;45.892;10.838;2023-03-14T21:58:35;13.28;72.49
63407;SHT31;49543;45.892;10.838;2023-03-14T22:01:01;13.20;73.94
63407;SHT31;49543;45.892;10.838;2023-03-14T22:03:26;13.27;70.91
63407;SHT31;49543;45.892;10.838;2023-03-14T22:05:52;13.24;68.64
63407;SHT31;49543;45.892;10.838;2023-03-14T22:08:17;13.20;71.33
63407;SHT31;49543;45.892;10.838;2023-03-14T22:10:50;13.20;74.96
63407;SHT31;49543;45.892;10.838;2023-03-14T22:13:16;13.04;74.91
63407;SHT31;49543;45.892;10.838;2023-03-14T22:15:44;12.96;76.17
63407;SHT31;49543;45.892;10.838;2023-03-14T22:18:10;12.89;76.40
63407;SHT31;49543;45.892;10.838;2023-03-14T22:20:35;12.88;75.89
63407;SHT31;49543;45.892;10.838;2023-03-14T22:23:01;12.81;72.73
63407;SHT31;49543;45.892;10.838;2023-03-14T22:25:27;12.83;72.06
63407;SHT31;49543;45.892;10.838;2023-03-14T22:27:52;12.86;72.23
63407;SHT31;49543;45.892;10.838;2023-03-14T22:30:17;12.83;73.54
63407;SHT31;49543;45.892;10.838;2023-03-14T22:32:43;12.78;74.11
63407;SHT31;49543;45.892;10.838;2023-03-14T22:35:08;12.71;74.15
63407;SHT31;49543;45.892;10.838;2023-03-14T22:37:34;12.72;69.97
